Acmar, Alabama
Current Conditions -  °F | °C
As of 9:53 PM on Thursday 27 Nov 2014 (Local Time) from KBHM Reporting Station
Clear Clear  
Wind Chill: 29°   Ceiling: Unl
Heat Index: 33°   Visibility: 10mi
Dew Point: 27°   Wind: 5mph
Humidity: 78%   Direction: 350°N
Pressure: 30.47"   Gusts: NA
Location:  33.6013°N, 86.5003°W
Report Text: KBHM 280353Z 35004KT 10SM CLR 01/M03 A3047 RMK AO2 SLP319 T00061028
Loading
Personal Weather Stations






























Interactive Weather Map New forecast layout! Learn more

10-Day Weather Forecast

Advertisements
Track Severe Weather on mobile